Terminal Aerodrome Forecast
Issued by NWS

Home | Current Version | Previous Version | Graphics & Text | Print | Product List | Glossary On
Versions: 1 2 3 4 5 6 7 8 9 10 11 12 13 14 15 16 17 18 19
920
FTUS43 KOAX 221137
TAFCDR
TAF
KCDR 221137Z 2212/2312 16012KT P6SM OVC060
     FM221400 15014KT 1SM -RA OVC015
     FM221800 13015KT 3SM -RA OVC015
     FM230100 14010KT 1SM -RA BR OVC008=

USA.gov is the U.S. government's official web portal to all federal, state and local government web resources and services.